sensor_id;sensor_type;location;lat;lon;timestamp;temperature;humidity
56725;DHT22;42608;52.776;6.968;2023-06-01T00:00:31;11.90;99.90
56725;DHT22;42608;52.776;6.968;2023-06-01T00:02:56;11.80;99.90
56725;DHT22;42608;52.776;6.968;2023-06-01T00:05:22;11.90;99.90
56725;DHT22;42608;52.776;6.968;2023-06-01T00:07:47;11.90;99.90
56725;DHT22;42608;52.776;6.968;2023-06-01T00:10:13;11.90;99.90
56725;DHT22;42608;52.776;6.968;2023-06-01T00:12:38;11.90;99.90
56725;DHT22;42608;52.776;6.968;2023-06-01T00:15:04;11.90;99.90
56725;DHT22;42608;52.776;6.968;2023-06-01T00:17:30;11.90;99.90
56725;DHT22;42608;52.776;6.968;2023-06-01T00:19:56;11.90;99.90
56725;DHT22;42608;52.776;6.968;2023-06-01T00:22:22;11.80;99.90
56725;DHT22;42608;52.776;6.968;2023-06-01T00:24:49;11.80;99.90
56725;DHT22;42608;52.776;6.968;2023-06-01T00:27:15;11.90;99.90
56725;DHT22;42608;52.776;6.968;2023-06-01T00:29:41;11.90;99.90
56725;DHT22;42608;52.776;6.968;2023-06-01T00:32:06;11.80;99.90
56725;DHT22;42608;52.776;6.968;2023-06-01T00:34:32;11.80;99.90
56725;DHT22;42608;52.776;6.968;2023-06-01T00:36:58;11.80;99.90
56725;DHT22;42608;52.776;6.968;2023-06-01T00:39:23;11.80;99.90
56725;DHT22;42608;52.776;6.968;2023-06-01T00:41:49;11.70;99.90
56725;DHT22;42608;52.776;6.968;2023-06-01T00:44:14;11.70;99.90
56725;DHT22;42608;52.776;6.968;2023-06-01T00:46:40;11.70;99.90
56725;DHT22;42608;52.776;6.968;2023-06-01T00:49:06;11.70;99.90
56725;DHT22;42608;52.776;6.968;2023-06-01T00:51:32;11.70;99.90
56725;DHT22;42608;52.776;6.968;2023-06-01T00:53:59;11.70;99.90
56725;DHT22;42608;52.776;6.968;2023-06-01T00:56:24;11.60;99.90
56725;DHT22;42608;52.776;6.968;2023-06-01T00:58:50;11.70;99.90
56725;DHT22;42608;52.776;6.968;2023-06-01T01:01:16;11.70;99.90
56725;DHT22;42608;52.776;6.968;2023-06-01T01:03:48;11.70;99.90
56725;DHT22;42608;52.776;6.968;2023-06-01T01:11:18;11.70;99.90
56725;DHT22;42608;52.776;6.968;2023-06-01T01:13:50;11.70;99.90
56725;DHT22;42608;52.776;6.968;2023-06-01T01:16:21;11.70;99.90
56725;DHT22;42608;52.776;6.968;2023-06-01T01:18:51;11.70;99.90
56725;DHT22;42608;52.776;6.968;2023-06-01T01:21:20;11.70;99.90
56725;DHT22;42608;52.776;6.968;2023-06-01T01:26:30;11.60;99.90
56725;DHT22;42608;52.776;6.968;2023-06-01T01:29:01;11.60;99.90
56725;DHT22;42608;52.776;6.968;2023-06-01T01:31:29;11.60;99.90
56725;DHT22;42608;52.776;6.968;2023-06-01T01:33:55;11.60;99.90
56725;DHT22;42608;52.776;6.968;2023-06-01T01:36:22;11.60;99.90
56725;DHT22;42608;52.776;6.968;2023-06-01T01:38:48;11.60;99.90
56725;DHT22;42608;52.776;6.968;2023-06-01T01:41:13;11.60;99.90
56725;DHT22;42608;52.776;6.968;2023-06-01T01:43:39;11.60;99.90
56725;DHT22;42608;52.776;6.968;2023-06-01T01:46:15;11.60;99.90
56725;DHT22;42608;52.776;6.968;2023-06-01T01:48:47;11.60;99.90
56725;DHT22;42608;52.776;6.968;2023-06-01T01:51:15;11.50;99.90
56725;DHT22;42608;52.776;6.968;2023-06-01T01:53:41;11.50;99.90
56725;DHT22;42608;52.776;6.968;2023-06-01T01:56:09;11.50;99.90
56725;DHT22;42608;52.776;6.968;2023-06-01T01:58:34;11.50;99.90
56725;DHT22;42608;52.776;6.968;2023-06-01T02:01:00;11.50;99.90
56725;DHT22;42608;52.776;6.968;2023-06-01T02:03:26;11.50;99.90
56725;DHT22;42608;52.776;6.968;2023-06-01T02:05:52;11.60;99.90
56725;DHT22;42608;52.776;6.968;2023-06-01T02:08:18;11.50;99.90
56725;DHT22;42608;52.776;6.968;2023-06-01T02:10:43;11.50;99.90
56725;DHT22;42608;52.776;6.968;2023-06-01T02:13:09;11.50;99.90
56725;DHT22;42608;52.776;6.968;2023-06-01T02:15:35;11.50;99.90
56725;DHT22;42608;52.776;6.968;2023-06-01T02:18:00;11.50;99.90
56725;DHT22;42608;52.776;6.968;2023-06-01T02:20:27;11.50;99.90
56725;DHT22;42608;52.776;6.968;2023-06-01T02:22:53;11.50;99.90
56725;DHT22;42608;52.776;6.968;2023-06-01T02:25:18;11.50;99.90
56725;DHT22;42608;52.776;6.968;2023-06-01T02:27:44;11.50;99.90
56725;DHT22;42608;52.776;6.968;2023-06-01T02:30:10;11.50;99.90
56725;DHT22;42608;52.776;6.968;2023-06-01T02:32:36;11.50;99.90
56725;DHT22;42608;52.776;6.968;2023-06-01T02:35:03;11.60;99.90
56725;DHT22;42608;52.776;6.968;2023-06-01T02:37:28;11.60;99.90
56725;DHT22;42608;52.776;6.968;2023-06-01T02:39:54;11.50;99.90
56725;DHT22;42608;52.776;6.968;2023-06-01T02:42:20;11.60;99.90
56725;DHT22;42608;52.776;6.968;2023-06-01T02:44:45;11.50;99.90
56725;DHT22;42608;52.776;6.968;2023-06-01T02:47:11;11.60;99.90
56725;DHT22;42608;52.776;6.968;2023-06-01T02:49:36;11.60;99.90
56725;DHT22;42608;52.776;6.968;2023-06-01T02:52:02;11.60;99.90
56725;DHT22;42608;52.776;6.968;2023-06-01T02:54:28;11.60;99.90
56725;DHT22;42608;52.776;6.968;2023-06-01T02:56:53;11.60;99.90
56725;DHT22;42608;52.776;6.968;2023-06-01T02:59:19;11.60;99.90
56725;DHT22;42608;52.776;6.968;2023-06-01T03:01:44;11.60;99.90
56725;DHT22;42608;52.776;6.968;2023-06-01T03:04:10;11.60;99.90
56725;DHT22;42608;52.776;6.968;2023-06-01T03:06:37;11.50;99.90
56725;DHT22;42608;52.776;6.968;2023-06-01T03:09:03;11.50;99.90
56725;DHT22;42608;52.776;6.968;2023-06-01T03:11:29;11.50;99.90
56725;DHT22;42608;52.776;6.968;2023-06-01T03:13:55;11.50;99.90
56725;DHT22;42608;52.776;6.968;2023-06-01T03:16:25;11.50;99.90
56725;DHT22;42608;52.776;6.968;2023-06-01T03:18:51;11.50;99.90
56725;DHT22;42608;52.776;6.968;2023-06-01T03:21:17;11.50;99.90
56725;DHT22;42608;52.776;6.968;2023-06-01T03:23:43;11.50;99.90
56725;DHT22;42608;52.776;6.968;2023-06-01T03:26:10;11.50;99.90
56725;DHT22;42608;52.776;6.968;2023-06-01T03:28:35;11.50;99.90
56725;DHT22;42608;52.776;6.968;2023-06-01T03:31:01;11.50;99.90
56725;DHT22;42608;52.776;6.968;2023-06-01T03:33:27;11.50;99.90
56725;DHT22;42608;52.776;6.968;2023-06-01T03:35:52;11.50;99.90
56725;DHT22;42608;52.776;6.968;2023-06-01T03:38:18;11.50;99.90
56725;DHT22;42608;52.776;6.968;2023-06-01T03:40:43;11.50;99.90
56725;DHT22;42608;52.776;6.968;2023-06-01T03:43:09;11.40;99.90
56725;DHT22;42608;52.776;6.968;2023-06-01T03:45:35;11.40;99.90
56725;DHT22;42608;52.776;6.968;2023-06-01T03:48:00;11.40;99.90
56725;DHT22;42608;52.776;6.968;2023-06-01T03:50:26;11.40;99.90
56725;DHT22;42608;52.776;6.968;2023-06-01T03:52:51;11.40;99.90
56725;DHT22;42608;52.776;6.968;2023-06-01T03:55:17;11.40;99.90
56725;DHT22;42608;52.776;6.968;2023-06-01T03:57:42;11.40;99.90
56725;DHT22;42608;52.776;6.968;2023-06-01T04:00:08;11.40;99.90
56725;DHT22;42608;52.776;6.968;2023-06-01T04:02:54;11.40;99.90
56725;DHT22;42608;52.776;6.968;2023-06-01T04:05:20;11.40;99.90
56725;DHT22;42608;52.776;6.968;2023-06-01T04:07:47;11.40;99.90
56725;DHT22;42608;52.776;6.968;2023-06-01T04:10:12;11.40;99.90
56725;DHT22;42608;52.776;6.968;2023-06-01T04:12:40;11.40;99.90
56725;DHT22;42608;52.776;6.968;2023-06-01T04:15:06;11.30;99.90
56725;DHT22;42608;52.776;6.968;2023-06-01T04:17:31;11.30;99.90
56725;DHT22;42608;52.776;6.968;2023-06-01T04:19:57;11.30;99.90
56725;DHT22;42608;52.776;6.968;2023-06-01T04:22:22;11.30;99.90
56725;DHT22;42608;52.776;6.968;2023-06-01T04:24:48;11.30;99.90
56725;DHT22;42608;52.776;6.968;2023-06-01T04:27:13;11.40;99.90
56725;DHT22;42608;52.776;6.968;2023-06-01T04:29:42;11.30;99.90
56725;DHT22;42608;52.776;6.968;2023-06-01T04:32:09;11.30;99.90
56725;DHT22;42608;52.776;6.968;2023-06-01T04:34:35;11.40;99.90
56725;DHT22;42608;52.776;6.968;2023-06-01T04:37:01;11.40;99.90
56725;DHT22;42608;52.776;6.968;2023-06-01T04:39:29;11.40;99.90
56725;DHT22;42608;52.776;6.968;2023-06-01T04:41:55;11.30;99.90
56725;DHT22;42608;52.776;6.968;2023-06-01T04:44:22;11.30;99.90
56725;DHT22;42608;52.776;6.968;2023-06-01T04:46:48;11.30;99.90
56725;DHT22;42608;52.776;6.968;2023-06-01T04:49:15;11.30;99.90
56725;DHT22;42608;52.776;6.968;2023-06-01T04:51:41;11.30;99.90
56725;DHT22;42608;52.776;6.968;2023-06-01T04:54:06;11.30;99.90
56725;DHT22;42608;52.776;6.968;2023-06-01T04:56:32;11.30;99.90
56725;DHT22;42608;52.776;6.968;2023-06-01T04:58:58;11.30;99.90
56725;DHT22;42608;52.776;6.968;2023-06-01T05:01:24;11.20;99.90
56725;DHT22;42608;52.776;6.968;2023-06-01T05:03:54;11.30;99.90
56725;DHT22;42608;52.776;6.968;2023-06-01T05:06:21;11.20;99.90
56725;DHT22;42608;52.776;6.968;2023-06-01T05:08:47;11.20;99.90
56725;DHT22;42608;52.776;6.968;2023-06-01T05:11:13;11.20;99.90
56725;DHT22;42608;52.776;6.968;2023-06-01T05:13:38;11.20;99.90
56725;DHT22;42608;52.776;6.968;2023-06-01T05:16:04;11.20;99.90
56725;DHT22;42608;52.776;6.968;2023-06-01T05:18:30;11.30;99.90
56725;DHT22;42608;52.776;6.968;2023-06-01T05:20:56;11.30;99.90
56725;DHT22;42608;52.776;6.968;2023-06-01T05:23:22;11.30;99.90
56725;DHT22;42608;52.776;6.968;2023-06-01T05:25:48;11.30;99.90
56725;DHT22;42608;52.776;6.968;2023-06-01T05:28:13;11.30;99.90
56725;DHT22;42608;52.776;6.968;2023-06-01T05:30:40;11.30;99.90
56725;DHT22;42608;52.776;6.968;2023-06-01T05:33:05;11.30;99.90
56725;DHT22;42608;52.776;6.968;2023-06-01T05:35:31;11.30;99.90
56725;DHT22;42608;52.776;6.968;2023-06-01T05:37:56;11.30;99.90
56725;DHT22;42608;52.776;6.968;2023-06-01T05:40:22;11.30;99.90
56725;DHT22;42608;52.776;6.968;2023-06-01T05:42:47;11.40;99.90
56725;DHT22;42608;52.776;6.968;2023-06-01T05:45:13;11.30;99.90
56725;DHT22;42608;52.776;6.968;2023-06-01T05:47:38;11.30;99.90
56725;DHT22;42608;52.776;6.968;2023-06-01T05:50:04;11.30;99.90
56725;DHT22;42608;52.776;6.968;2023-06-01T05:52:30;11.30;99.90
56725;DHT22;42608;52.776;6.968;2023-06-01T05:54:56;11.30;99.90
56725;DHT22;42608;52.776;6.968;2023-06-01T05:57:21;11.30;99.90
56725;DHT22;42608;52.776;6.968;2023-06-01T05:59:47;11.30;99.90
56725;DHT22;42608;52.776;6.968;2023-06-01T06:02:13;11.30;99.90
56725;DHT22;42608;52.776;6.968;2023-06-01T06:04:39;11.30;99.90
56725;DHT22;42608;52.776;6.968;2023-06-01T06:07:04;11.30;99.90
56725;DHT22;42608;52.776;6.968;2023-06-01T06:09:30;11.40;99.90
56725;DHT22;42608;52.776;6.968;2023-06-01T06:11:56;11.40;99.90
56725;DHT22;42608;52.776;6.968;2023-06-01T06:14:22;11.40;99.90
56725;DHT22;42608;52.776;6.968;2023-06-01T06:16:47;11.40;99.90
56725;DHT22;42608;52.776;6.968;2023-06-01T06:19:13;11.40;99.90
56725;DHT22;42608;52.776;6.968;2023-06-01T06:21:41;11.40;99.90
56725;DHT22;42608;52.776;6.968;2023-06-01T06:24:06;11.50;99.90
56725;DHT22;42608;52.776;6.968;2023-06-01T06:26:32;11.50;99.90
56725;DHT22;42608;52.776;6.968;2023-06-01T06:28:58;11.50;99.90
56725;DHT22;42608;52.776;6.968;2023-06-01T06:31:23;11.50;99.90
56725;DHT22;42608;52.776;6.968;2023-06-01T06:33:49;11.50;99.90
56725;DHT22;42608;52.776;6.968;2023-06-01T06:36:15;11.50;99.90
56725;DHT22;42608;52.776;6.968;2023-06-01T06:38:42;11.50;99.90
56725;DHT22;42608;52.776;6.968;2023-06-01T06:41:07;11.60;99.90
56725;DHT22;42608;52.776;6.968;2023-06-01T06:43:33;11.60;99.90
56725;DHT22;42608;52.776;6.968;2023-06-01T06:45:59;11.60;99.90
56725;DHT22;42608;52.776;6.968;2023-06-01T06:48:24;11.60;99.90
56725;DHT22;42608;52.776;6.968;2023-06-01T06:50:50;11.60;99.90
56725;DHT22;42608;52.776;6.968;2023-06-01T06:53:15;11.60;99.90
56725;DHT22;42608;52.776;6.968;2023-06-01T06:55:41;11.60;99.90
56725;DHT22;42608;52.776;6.968;2023-06-01T06:58:08;11.60;99.90
56725;DHT22;42608;52.776;6.968;2023-06-01T07:00:36;11.70;99.90
56725;DHT22;42608;52.776;6.968;2023-06-01T07:03:02;11.60;99.90
56725;DHT22;42608;52.776;6.968;2023-06-01T07:05:28;11.70;99.90
56725;DHT22;42608;52.776;6.968;2023-06-01T07:07:54;11.70;99.90
56725;DHT22;42608;52.776;6.968;2023-06-01T07:10:20;11.70;99.90
56725;DHT22;42608;52.776;6.968;2023-06-01T07:12:45;11.80;99.90
56725;DHT22;42608;52.776;6.968;2023-06-01T07:15:11;11.80;99.90
56725;DHT22;42608;52.776;6.968;2023-06-01T07:17:37;11.80;99.90
56725;DHT22;42608;52.776;6.968;2023-06-01T07:20:03;11.80;99.90
56725;DHT22;42608;52.776;6.968;2023-06-01T07:22:32;11.90;99.90
56725;DHT22;42608;52.776;6.968;2023-06-01T07:24:58;11.90;99.90
56725;DHT22;42608;52.776;6.968;2023-06-01T07:27:24;11.90;99.90
56725;DHT22;42608;52.776;6.968;2023-06-01T07:29:49;11.90;99.90
56725;DHT22;42608;52.776;6.968;2023-06-01T07:32:20;12.00;99.90
56725;DHT22;42608;52.776;6.968;2023-06-01T07:34:46;12.00;99.90
56725;DHT22;42608;52.776;6.968;2023-06-01T07:37:12;12.00;99.90
56725;DHT22;42608;52.776;6.968;2023-06-01T07:39:37;12.00;99.90
56725;DHT22;42608;52.776;6.968;2023-06-01T07:42:03;12.00;99.90
56725;DHT22;42608;52.776;6.968;2023-06-01T07:44:29;12.00;99.90
56725;DHT22;42608;52.776;6.968;2023-06-01T07:46:54;12.00;99.90
56725;DHT22;42608;52.776;6.968;2023-06-01T07:49:20;12.10;99.90
56725;DHT22;42608;52.776;6.968;2023-06-01T07:51:45;12.10;99.90
56725;DHT22;42608;52.776;6.968;2023-06-01T07:54:11;12.10;99.90
56725;DHT22;42608;52.776;6.968;2023-06-01T07:56:37;12.10;99.90
56725;DHT22;42608;52.776;6.968;2023-06-01T07:59:02;12.10;99.90
56725;DHT22;42608;52.776;6.968;2023-06-01T08:01:28;12.10;99.90
56725;DHT22;42608;52.776;6.968;2023-06-01T08:03:53;12.10;99.90
56725;DHT22;42608;52.776;6.968;2023-06-01T08:06:21;12.20;99.90
56725;DHT22;42608;52.776;6.968;2023-06-01T08:08:48;12.20;99.90
56725;DHT22;42608;52.776;6.968;2023-06-01T08:11:17;12.10;99.90
56725;DHT22;42608;52.776;6.968;2023-06-01T08:13:43;12.20;99.90
56725;DHT22;42608;52.776;6.968;2023-06-01T08:16:11;12.20;99.90
56725;DHT22;42608;52.776;6.968;2023-06-01T08:18:38;12.20;99.90
56725;DHT22;42608;52.776;6.968;2023-06-01T08:21:03;12.30;99.90
56725;DHT22;42608;52.776;6.968;2023-06-01T08:23:29;12.30;99.90
56725;DHT22;42608;52.776;6.968;2023-06-01T08:25:55;12.40;99.90
56725;DHT22;42608;52.776;6.968;2023-06-01T08:28:21;12.40;99.90
56725;DHT22;42608;52.776;6.968;2023-06-01T08:30:46;12.50;99.90
56725;DHT22;42608;52.776;6.968;2023-06-01T08:33:12;12.50;99.90
56725;DHT22;42608;52.776;6.968;2023-06-01T08:35:37;12.50;99.90
56725;DHT22;42608;52.776;6.968;2023-06-01T08:38:03;12.50;99.90
56725;DHT22;42608;52.776;6.968;2023-06-01T08:40:29;12.60;99.90
56725;DHT22;42608;52.776;6.968;2023-06-01T08:42:57;12.50;99.90
56725;DHT22;42608;52.776;6.968;2023-06-01T08:45:24;12.70;99.90
56725;DHT22;42608;52.776;6.968;2023-06-01T08:47:52;12.70;99.90
56725;DHT22;42608;52.776;6.968;2023-06-01T08:50:18;12.80;99.90
56725;DHT22;42608;52.776;6.968;2023-06-01T08:52:43;12.90;99.90
56725;DHT22;42608;52.776;6.968;2023-06-01T08:55:11;12.90;99.90
56725;DHT22;42608;52.776;6.968;2023-06-01T08:57:40;12.90;99.90
56725;DHT22;42608;52.776;6.968;2023-06-01T09:00:05;12.90;99.90
56725;DHT22;42608;52.776;6.968;2023-06-01T09:02:32;13.00;99.90
56725;DHT22;42608;52.776;6.968;2023-06-01T09:04:58;13.00;99.90
56725;DHT22;42608;52.776;6.968;2023-06-01T09:07:24;13.00;99.90
56725;DHT22;42608;52.776;6.968;2023-06-01T09:09:50;13.00;99.90
56725;DHT22;42608;52.776;6.968;2023-06-01T09:14:44;13.00;99.90
56725;DHT22;42608;52.776;6.968;2023-06-01T09:17:14;13.10;99.90
56725;DHT22;42608;52.776;6.968;2023-06-01T09:19:41;13.10;99.90
56725;DHT22;42608;52.776;6.968;2023-06-01T09:22:07;13.00;99.90
56725;DHT22;42608;52.776;6.968;2023-06-01T09:24:32;13.00;99.90
56725;DHT22;42608;52.776;6.968;2023-06-01T09:26:59;13.00;99.90
56725;DHT22;42608;52.776;6.968;2023-06-01T09:29:25;13.00;99.90
56725;DHT22;42608;52.776;6.968;2023-06-01T09:31:51;13.00;99.90
56725;DHT22;42608;52.776;6.968;2023-06-01T09:34:18;12.90;99.90
56725;DHT22;42608;52.776;6.968;2023-06-01T09:36:44;12.90;99.90
56725;DHT22;42608;52.776;6.968;2023-06-01T09:39:11;12.90;99.90
56725;DHT22;42608;52.776;6.968;2023-06-01T09:41:43;12.90;99.90
56725;DHT22;42608;52.776;6.968;2023-06-01T09:44:09;12.90;99.90
56725;DHT22;42608;52.776;6.968;2023-06-01T09:46:45;12.90;99.90
56725;DHT22;42608;52.776;6.968;2023-06-01T09:49:10;13.00;99.90
56725;DHT22;42608;52.776;6.968;2023-06-01T09:51:42;13.00;99.90
56725;DHT22;42608;52.776;6.968;2023-06-01T09:54:08;13.00;99.90
56725;DHT22;42608;52.776;6.968;2023-06-01T09:56:42;13.00;99.90
56725;DHT22;42608;52.776;6.968;2023-06-01T09:59:07;13.10;99.90
56725;DHT22;42608;52.776;6.968;2023-06-01T10:01:33;13.00;99.90
56725;DHT22;42608;52.776;6.968;2023-06-01T10:03:59;13.00;99.90
56725;DHT22;42608;52.776;6.968;2023-06-01T10:06:25;13.10;99.90
56725;DHT22;42608;52.776;6.968;2023-06-01T10:08:53;13.10;99.90
56725;DHT22;42608;52.776;6.968;2023-06-01T10:11:20;13.10;99.90
56725;DHT22;42608;52.776;6.968;2023-06-01T10:13:46;13.00;99.90
56725;DHT22;42608;52.776;6.968;2023-06-01T10:16:11;13.10;99.90
56725;DHT22;42608;52.776;6.968;2023-06-01T10:18:38;13.00;99.90
56725;DHT22;42608;52.776;6.968;2023-06-01T10:21:03;13.10;99.90
56725;DHT22;42608;52.776;6.968;2023-06-01T10:23:31;13.10;99.90
56725;DHT22;42608;52.776;6.968;2023-06-01T10:25:57;13.10;99.90
56725;DHT22;42608;52.776;6.968;2023-06-01T10:28:25;13.10;99.90
56725;DHT22;42608;52.776;6.968;2023-06-01T10:33:53;13.20;99.90
56725;DHT22;42608;52.776;6.968;2023-06-01T10:36:19;13.20;99.90
56725;DHT22;42608;52.776;6.968;2023-06-01T10:38:44;13.20;99.90
56725;DHT22;42608;52.776;6.968;2023-06-01T10:41:26;13.10;99.90
56725;DHT22;42608;52.776;6.968;2023-06-01T10:43:52;13.10;99.90
56725;DHT22;42608;52.776;6.968;2023-06-01T10:46:37;13.10;99.90
56725;DHT22;42608;52.776;6.968;2023-06-01T10:49:03;13.00;99.90
56725;DHT22;42608;52.776;6.968;2023-06-01T10:51:29;13.00;99.90
56725;DHT22;42608;52.776;6.968;2023-06-01T10:53:54;13.00;99.90
56725;DHT22;42608;52.776;6.968;2023-06-01T10:56:40;13.00;99.90
56725;DHT22;42608;52.776;6.968;2023-06-01T11:01:31;12.90;99.90
56725;DHT22;42608;52.776;6.968;2023-06-01T11:03:57;12.90;99.90
56725;DHT22;42608;52.776;6.968;2023-06-01T11:06:28;12.90;99.90
56725;DHT22;42608;52.776;6.968;2023-06-01T11:08:55;12.90;99.90
56725;DHT22;42608;52.776;6.968;2023-06-01T11:11:21;13.00;99.90
56725;DHT22;42608;52.776;6.968;2023-06-01T11:14:06;12.90;99.90
56725;DHT22;42608;52.776;6.968;2023-06-01T11:16:32;13.00;99.90
56725;DHT22;42608;52.776;6.968;2023-06-01T11:18:59;13.00;99.90
56725;DHT22;42608;52.776;6.968;2023-06-01T11:23:50;12.90;99.90
56725;DHT22;42608;52.776;6.968;2023-06-01T11:26:17;12.90;99.90
56725;DHT22;42608;52.776;6.968;2023-06-01T11:28:44;13.00;99.90
56725;DHT22;42608;52.776;6.968;2023-06-01T11:31:11;13.00;99.90
56725;DHT22;42608;52.776;6.968;2023-06-01T11:33:40;13.10;99.90
56725;DHT22;42608;52.776;6.968;2023-06-01T11:36:07;13.10;99.90
56725;DHT22;42608;52.776;6.968;2023-06-01T11:38:39;13.10;99.90
56725;DHT22;42608;52.776;6.968;2023-06-01T11:41:05;13.10;99.90
56725;DHT22;42608;52.776;6.968;2023-06-01T11:43:32;13.20;99.90
56725;DHT22;42608;52.776;6.968;2023-06-01T11:46:01;13.20;99.90
56725;DHT22;42608;52.776;6.968;2023-06-01T11:48:27;13.20;99.90
56725;DHT22;42608;52.776;6.968;2023-06-01T11:50:53;13.30;99.90
56725;DHT22;42608;52.776;6.968;2023-06-01T11:53:20;13.30;99.90
56725;DHT22;42608;52.776;6.968;2023-06-01T11:55:49;13.30;99.90
56725;DHT22;42608;52.776;6.968;2023-06-01T11:58:25;13.50;99.90
56725;DHT22;42608;52.776;6.968;2023-06-01T12:00:51;13.40;99.90
56725;DHT22;42608;52.776;6.968;2023-06-01T12:03:17;13.50;99.90
56725;DHT22;42608;52.776;6.968;2023-06-01T12:05:43;13.50;99.90
56725;DHT22;42608;52.776;6.968;2023-06-01T12:08:12;13.50;99.90
56725;DHT22;42608;52.776;6.968;2023-06-01T12:10:38;13.60;99.90
56725;DHT22;42608;52.776;6.968;2023-06-01T12:13:04;13.60;99.90
56725;DHT22;42608;52.776;6.968;2023-06-01T12:15:30;13.70;99.90
56725;DHT22;42608;52.776;6.968;2023-06-01T12:17:55;13.80;99.90
56725;DHT22;42608;52.776;6.968;2023-06-01T12:20:26;13.80;99.90
56725;DHT22;42608;52.776;6.968;2023-06-01T12:22:51;13.90;99.90
56725;DHT22;42608;52.776;6.968;2023-06-01T12:25:23;13.90;99.90
56725;DHT22;42608;52.776;6.968;2023-06-01T12:27:59;13.90;99.90
56725;DHT22;42608;52.776;6.968;2023-06-01T12:30:25;13.90;99.90
56725;DHT22;42608;52.776;6.968;2023-06-01T12:32:50;14.00;99.90
56725;DHT22;42608;52.776;6.968;2023-06-01T12:35:16;14.00;99.90
56725;DHT22;42608;52.776;6.968;2023-06-01T12:37:43;14.10;99.90
56725;DHT22;42608;52.776;6.968;2023-06-01T12:40:09;14.10;99.90
56725;DHT22;42608;52.776;6.968;2023-06-01T12:42:38;14.10;99.90
56725;DHT22;42608;52.776;6.968;2023-06-01T12:45:08;14.20;99.90
56725;DHT22;42608;52.776;6.968;2023-06-01T12:47:37;14.20;99.90
56725;DHT22;42608;52.776;6.968;2023-06-01T12:50:10;14.30;99.90
56725;DHT22;42608;52.776;6.968;2023-06-01T12:52:37;14.30;99.90
56725;DHT22;42608;52.776;6.968;2023-06-01T12:55:03;14.40;99.90
56725;DHT22;42608;52.776;6.968;2023-06-01T12:57:33;14.40;99.90
56725;DHT22;42608;52.776;6.968;2023-06-01T12:59:59;14.40;99.90
56725;DHT22;42608;52.776;6.968;2023-06-01T13:02:25;14.40;99.90
56725;DHT22;42608;52.776;6.968;2023-06-01T13:04:51;14.40;99.90
56725;DHT22;42608;52.776;6.968;2023-06-01T13:07:16;14.40;99.90
56725;DHT22;42608;52.776;6.968;2023-06-01T13:09:42;14.50;99.90
56725;DHT22;42608;52.776;6.968;2023-06-01T13:12:08;14.50;99.90
56725;DHT22;42608;52.776;6.968;2023-06-01T13:14:34;14.60;99.90
56725;DHT22;42608;52.776;6.968;2023-06-01T13:17:00;14.60;99.90
56725;DHT22;42608;52.776;6.968;2023-06-01T13:19:25;14.60;99.90
56725;DHT22;42608;52.776;6.968;2023-06-01T13:21:51;14.60;99.90
56725;DHT22;42608;52.776;6.968;2023-06-01T13:24:17;14.60;99.90
56725;DHT22;42608;52.776;6.968;2023-06-01T13:26:43;14.70;99.90
56725;DHT22;42608;52.776;6.968;2023-06-01T13:29:09;14.70;99.90
56725;DHT22;42608;52.776;6.968;2023-06-01T13:31:35;14.70;99.90
56725;DHT22;42608;52.776;6.968;2023-06-01T13:34:01;14.70;99.90
56725;DHT22;42608;52.776;6.968;2023-06-01T13:36:27;14.80;99.90
56725;DHT22;42608;52.776;6.968;2023-06-01T13:38:52;14.90;99.90
56725;DHT22;42608;52.776;6.968;2023-06-01T13:41:18;14.80;99.90
56725;DHT22;42608;52.776;6.968;2023-06-01T13:43:43;14.80;99.90
56725;DHT22;42608;52.776;6.968;2023-06-01T13:46:09;14.80;99.90
56725;DHT22;42608;52.776;6.968;2023-06-01T13:48:38;14.70;99.90
56725;DHT22;42608;52.776;6.968;2023-06-01T13:51:04;14.70;99.90
56725;DHT22;42608;52.776;6.968;2023-06-01T13:53:30;14.70;99.90
56725;DHT22;42608;52.776;6.968;2023-06-01T13:55:56;14.70;99.90
56725;DHT22;42608;52.776;6.968;2023-06-01T13:58:22;14.80;99.90
56725;DHT22;42608;52.776;6.968;2023-06-01T14:00:48;14.70;99.90
56725;DHT22;42608;52.776;6.968;2023-06-01T14:03:13;14.70;99.90
56725;DHT22;42608;52.776;6.968;2023-06-01T14:05:39;14.70;99.90
56725;DHT22;42608;52.776;6.968;2023-06-01T14:08:04;14.60;99.90
56725;DHT22;42608;52.776;6.968;2023-06-01T14:10:31;14.60;99.90
56725;DHT22;42608;52.776;6.968;2023-06-01T14:12:57;14.50;99.90
56725;DHT22;42608;52.776;6.968;2023-06-01T14:15:22;14.50;99.90
56725;DHT22;42608;52.776;6.968;2023-06-01T14:17:48;14.50;99.90
56725;DHT22;42608;52.776;6.968;2023-06-01T14:20:15;14.50;99.90
56725;DHT22;42608;52.776;6.968;2023-06-01T14:22:41;14.50;99.90
56725;DHT22;42608;52.776;6.968;2023-06-01T14:25:07;14.40;99.90
56725;DHT22;42608;52.776;6.968;2023-06-01T14:27:33;14.40;99.90
56725;DHT22;42608;52.776;6.968;2023-06-01T14:29:59;14.30;99.90
56725;DHT22;42608;52.776;6.968;2023-06-01T14:32:27;14.30;99.90
56725;DHT22;42608;52.776;6.968;2023-06-01T14:34:53;14.20;99.90
56725;DHT22;42608;52.776;6.968;2023-06-01T14:37:18;14.30;99.90
56725;DHT22;42608;52.776;6.968;2023-06-01T14:39:44;14.20;99.90
56725;DHT22;42608;52.776;6.968;2023-06-01T14:42:11;14.20;99.90
56725;DHT22;42608;52.776;6.968;2023-06-01T14:44:36;14.20;99.90
56725;DHT22;42608;52.776;6.968;2023-06-01T14:47:02;14.20;99.90
56725;DHT22;42608;52.776;6.968;2023-06-01T14:49:28;14.20;99.90
56725;DHT22;42608;52.776;6.968;2023-06-01T14:51:53;14.10;99.90
56725;DHT22;42608;52.776;6.968;2023-06-01T14:54:19;14.10;99.90
56725;DHT22;42608;52.776;6.968;2023-06-01T14:56:45;14.10;99.90
56725;DHT22;42608;52.776;6.968;2023-06-01T14:59:10;14.10;99.90
56725;DHT22;42608;52.776;6.968;2023-06-01T15:01:36;14.10;99.90
56725;DHT22;42608;52.776;6.968;2023-06-01T15:04:01;14.20;99.90
56725;DHT22;42608;52.776;6.968;2023-06-01T15:06:27;14.10;99.90
56725;DHT22;42608;52.776;6.968;2023-06-01T15:08:53;14.10;99.90
56725;DHT22;42608;52.776;6.968;2023-06-01T15:11:18;14.00;99.90
56725;DHT22;42608;52.776;6.968;2023-06-01T15:13:45;14.00;99.90
56725;DHT22;42608;52.776;6.968;2023-06-01T15:16:11;13.90;99.90
56725;DHT22;42608;52.776;6.968;2023-06-01T15:18:36;13.90;99.90
56725;DHT22;42608;52.776;6.968;2023-06-01T15:21:02;13.80;99.90
56725;DHT22;42608;52.776;6.968;2023-06-01T15:23:28;13.80;99.90
56725;DHT22;42608;52.776;6.968;2023-06-01T15:25:53;13.80;99.90
56725;DHT22;42608;52.776;6.968;2023-06-01T15:28:19;13.80;99.90
56725;DHT22;42608;52.776;6.968;2023-06-01T15:30:44;13.80;99.90
56725;DHT22;42608;52.776;6.968;2023-06-01T15:33:10;13.80;99.90
56725;DHT22;42608;52.776;6.968;2023-06-01T15:35:36;13.80;99.90
56725;DHT22;42608;52.776;6.968;2023-06-01T15:38:01;13.80;99.90
56725;DHT22;42608;52.776;6.968;2023-06-01T15:40:27;13.80;99.90
56725;DHT22;42608;52.776;6.968;2023-06-01T15:42:52;13.80;99.90